Terminal Aerodrome Forecast
Issued by NWS

Home | Current Version | Previous Version | Text Only | Print | Product List | Glossary On
Versions: 1 2 3 4 5 6 7 8 9 10 11 12 13 14 15 16 17 18
084
FTUS43 KGRB 250525
TAFMTW
TAF
KMTW 250525Z 2506/2606 VRB03KT P6SM SCT060
      TEMPO 2506/2509 3SM BR
     FM250900 02006KT 3SM BR SCT002
      TEMPO 2510/2514 1SM BR OVC002
     FM251500 09009G15KT P6SM SCT005 BKN012
     FM251700 07008KT P6SM SCT025 BKN250
     FM260100 12003KT 5SM -SHRA BR SCT010 OVC020
      TEMPO 2602/2606 2SM +TSRA OVC020CB=

USA.gov is the U.S. government's official web portal to all federal, state and local government web resources and services.